sensor_id;sensor_type;location;lat;lon;timestamp;pressure;altitude;pressure_sealevel;temperature;humidity
30875;BME280;17581;43.222;27.924;2022-10-16T00:01:09;101356.66;;;13.64;64.50
30875;BME280;17581;43.222;27.924;2022-10-16T00:03:37;101336.81;;;13.54;63.99
30875;BME280;17581;43.222;27.924;2022-10-16T00:06:03;101444.63;;;14.22;64.11
30875;BME280;17581;43.222;27.924;2022-10-16T00:08:29;101449.78;;;14.25;63.68
30875;BME280;17581;43.222;27.924;2022-10-16T00:11:03;101457.91;;;14.25;63.72
30875;BME280;17581;43.222;27.924;2022-10-16T00:13:31;101315.44;;;13.40;63.73
30875;BME280;17581;43.222;27.924;2022-10-16T00:15:58;101349.06;;;13.58;63.59
30875;BME280;17581;43.222;27.924;2022-10-16T00:18:24;101397.19;;;13.86;63.72
30875;BME280;17581;43.222;27.924;2022-10-16T00:20:51;101301.13;;;13.28;63.30
30875;BME280;17581;43.222;27.924;2022-10-16T00:23:16;101316.22;;;13.31;63.82
30875;BME280;17581;43.222;27.924;2022-10-16T00:25:42;101400.13;;;13.83;63.48
30875;BME280;17581;43.222;27.924;2022-10-16T00:28:08;101324.81;;;13.36;63.41
30875;BME280;17581;43.222;27.924;2022-10-16T00:30:33;101319.91;;;13.30;63.50
30875;BME280;17581;43.222;27.924;2022-10-16T00:32:59;101330.09;;;13.37;63.37
30875;BME280;17581;43.222;27.924;2022-10-16T00:35:24;101424.22;;;13.97;63.45
30875;BME280;17581;43.222;27.924;2022-10-16T00:37:50;101421.97;;;13.91;62.98
30875;BME280;17581;43.222;27.924;2022-10-16T00:40:16;101306.78;;;13.25;63.20
30875;BME280;17581;43.222;27.924;2022-10-16T00:42:41;101398.81;;;13.78;62.80
30875;BME280;17581;43.222;27.924;2022-10-16T00:45:08;101377.97;;;13.57;63.17
30875;BME280;17581;43.222;27.924;2022-10-16T00:47:37;101318.22;;;13.18;62.97
30875;BME280;17581;43.222;27.924;2022-10-16T00:52:32;101294.00;;;12.94;63.30
30875;BME280;17581;43.222;27.924;2022-10-16T00:55:00;101341.03;;;13.14;63.41
30875;BME280;17581;43.222;27.924;2022-10-16T00:57:27;101321.13;;;12.92;63.56
30875;BME280;17581;43.222;27.924;2022-10-16T00:59:53;101385.00;;;13.27;64.12
30875;BME280;17581;43.222;27.924;2022-10-16T01:02:18;101335.38;;;12.83;63.81
30875;BME280;17581;43.222;27.924;2022-10-16T01:04:49;101380.28;;;13.06;64.14
30875;BME280;17581;43.222;27.924;2022-10-16T01:07:20;101437.19;;;13.38;64.37
30875;BME280;17581;43.222;27.924;2022-10-16T01:13:12;101452.78;;;13.24;64.79
30875;BME280;17581;43.222;27.924;2022-10-16T01:15:41;101452.03;;;13.22;65.04
30875;BME280;17581;43.222;27.924;2022-10-16T01:20:50;101355.31;;;12.47;65.18
30875;BME280;17581;43.222;27.924;2022-10-16T01:25:49;101461.97;;;13.21;64.74
30875;BME280;17581;43.222;27.924;2022-10-16T01:28:23;101445.97;;;13.07;65.01
30875;BME280;17581;43.222;27.924;2022-10-16T01:30:52;101299.47;;;12.26;64.78
30875;BME280;17581;43.222;27.924;2022-10-16T01:33:30;101389.31;;;12.72;64.80
30875;BME280;17581;43.222;27.924;2022-10-16T01:36:03;101428.75;;;12.97;64.54
30875;BME280;17581;43.222;27.924;2022-10-16T01:38:35;101371.69;;;12.68;64.07
30875;BME280;17581;43.222;27.924;2022-10-16T01:41:09;101345.59;;;12.45;64.09
30875;BME280;17581;43.222;27.924;2022-10-16T01:44:01;101307.81;;;12.34;64.18
30875;BME280;17581;43.222;27.924;2022-10-16T01:53:30;101373.84;;;12.63;63.54
30875;BME280;17581;43.222;27.924;2022-10-16T01:55:58;101341.94;;;12.46;63.38
30875;BME280;17581;43.222;27.924;2022-10-16T01:58:27;101333.22;;;12.42;62.94
30875;BME280;17581;43.222;27.924;2022-10-16T02:00:56;101331.63;;;12.40;63.67
30875;BME280;17581;43.222;27.924;2022-10-16T02:03:22;101426.69;;;13.00;63.32
30875;BME280;17581;43.222;27.924;2022-10-16T02:05:54;101392.16;;;12.71;62.71
30875;BME280;17581;43.222;27.924;2022-10-16T02:08:23;101482.59;;;13.11;63.14
30875;BME280;17581;43.222;27.924;2022-10-16T02:10:51;101331.78;;;12.04;63.61
30875;BME280;17581;43.222;27.924;2022-10-16T02:16:10;101361.91;;;12.09;64.51
30875;BME280;17581;43.222;27.924;2022-10-16T02:18:36;101328.69;;;11.73;64.44
30875;BME280;17581;43.222;27.924;2022-10-16T02:24:51;101486.78;;;12.45;65.11
30875;BME280;17581;43.222;27.924;2022-10-16T02:30:11;101513.16;;;12.29;65.34
30875;BME280;17581;43.222;27.924;2022-10-16T02:32:42;101340.59;;;11.22;65.09
30875;BME280;17581;43.222;27.924;2022-10-16T02:35:09;101457.38;;;11.82;65.12
30875;BME280;17581;43.222;27.924;2022-10-16T02:37:36;101445.97;;;11.66;65.23
30875;BME280;17581;43.222;27.924;2022-10-16T02:40:04;101374.75;;;11.21;65.63
30875;BME280;17581;43.222;27.924;2022-10-16T02:42:39;101366.34;;;11.13;65.71
30875;BME280;17581;43.222;27.924;2022-10-16T02:45:06;101359.69;;;10.93;65.79
30875;BME280;17581;43.222;27.924;2022-10-16T02:47:32;101414.34;;;11.32;65.83
30875;BME280;17581;43.222;27.924;2022-10-16T02:49:58;101384.44;;;11.11;65.85
30875;BME280;17581;43.222;27.924;2022-10-16T02:52:24;101387.03;;;11.13;65.47
30875;BME280;17581;43.222;27.924;2022-10-16T02:54:50;101434.72;;;11.36;65.47
30875;BME280;17581;43.222;27.924;2022-10-16T02:57:15;101414.91;;;11.12;65.07
30875;BME280;17581;43.222;27.924;2022-10-16T02:59:41;101441.47;;;11.41;65.22
30875;BME280;17581;43.222;27.924;2022-10-16T03:02:08;101408.75;;;11.22;64.58
30875;BME280;17581;43.222;27.924;2022-10-16T03:04:34;101372.72;;;11.00;64.99
30875;BME280;17581;43.222;27.924;2022-10-16T03:10:09;101382.94;;;11.07;64.32
30875;BME280;17581;43.222;27.924;2022-10-16T03:12:35;101371.75;;;11.01;64.38
30875;BME280;17581;43.222;27.924;2022-10-16T03:15:00;101497.38;;;11.76;64.48
30875;BME280;17581;43.222;27.924;2022-10-16T03:17:26;101498.53;;;11.84;63.98
30875;BME280;17581;43.222;27.924;2022-10-16T03:19:52;101408.28;;;11.41;63.77
30875;BME280;17581;43.222;27.924;2022-10-16T03:22:17;101435.63;;;11.60;63.71
30875;BME280;17581;43.222;27.924;2022-10-16T03:24:43;101396.56;;;11.29;63.47
30875;BME280;17581;43.222;27.924;2022-10-16T03:27:09;101370.88;;;11.13;63.59
30875;BME280;17581;43.222;27.924;2022-10-16T03:29:35;101382.25;;;11.29;63.40
30875;BME280;17581;43.222;27.924;2022-10-16T03:32:01;101400.13;;;11.30;63.24
30875;BME280;17581;43.222;27.924;2022-10-16T03:34:27;101531.34;;;12.15;63.40
30875;BME280;17581;43.222;27.924;2022-10-16T03:36:53;101441.75;;;11.62;63.38
30875;BME280;17581;43.222;27.924;2022-10-16T03:39:19;101401.44;;;11.37;63.38
30875;BME280;17581;43.222;27.924;2022-10-16T03:41:45;101399.19;;;11.31;63.22
30875;BME280;17581;43.222;27.924;2022-10-16T03:44:12;101375.59;;;11.22;63.21
30875;BME280;17581;43.222;27.924;2022-10-16T03:46:38;101402.06;;;11.40;62.87
30875;BME280;17581;43.222;27.924;2022-10-16T03:52:30;101461.16;;;11.67;63.39
30875;BME280;17581;43.222;27.924;2022-10-16T03:54:57;101400.88;;;11.32;63.24
30875;BME280;17581;43.222;27.924;2022-10-16T03:57:23;101387.84;;;11.26;63.26
30875;BME280;17581;43.222;27.924;2022-10-16T03:59:48;101386.91;;;11.27;63.03
30875;BME280;17581;43.222;27.924;2022-10-16T04:02:14;101390.03;;;11.21;63.45
30875;BME280;17581;43.222;27.924;2022-10-16T04:08:02;101472.25;;;11.63;63.72
30875;BME280;17581;43.222;27.924;2022-10-16T04:10:28;101496.06;;;11.81;63.28
30875;BME280;17581;43.222;27.924;2022-10-16T04:12:53;101416.16;;;11.31;63.34
30875;BME280;17581;43.222;27.924;2022-10-16T04:15:23;101393.25;;;11.13;63.44
30875;BME280;17581;43.222;27.924;2022-10-16T04:17:49;101444.81;;;11.45;63.56
30875;BME280;17581;43.222;27.924;2022-10-16T04:20:15;101416.94;;;11.33;63.04
30875;BME280;17581;43.222;27.924;2022-10-16T04:22:41;101550.22;;;12.15;63.36
30875;BME280;17581;43.222;27.924;2022-10-16T04:25:07;101460.38;;;11.65;63.41
30875;BME280;17581;43.222;27.924;2022-10-16T04:27:33;101499.50;;;11.83;63.03
30875;BME280;17581;43.222;27.924;2022-10-16T04:29:59;101499.09;;;11.89;63.33
30875;BME280;17581;43.222;27.924;2022-10-16T04:32:26;101480.53;;;11.85;63.10
30875;BME280;17581;43.222;27.924;2022-10-16T04:34:51;101436.03;;;11.67;63.53
30875;BME280;17581;43.222;27.924;2022-10-16T04:37:17;101478.03;;;11.94;63.32
30875;BME280;17581;43.222;27.924;2022-10-16T04:39:42;101551.47;;;12.34;62.79
30875;BME280;17581;43.222;27.924;2022-10-16T04:42:08;101484.31;;;11.95;62.82
30875;BME280;17581;43.222;27.924;2022-10-16T04:44:34;101514.06;;;12.17;62.61
30875;BME280;17581;43.222;27.924;2022-10-16T04:46:59;101507.50;;;12.21;62.37
30875;BME280;17581;43.222;27.924;2022-10-16T04:49:25;101517.50;;;12.32;62.06
30875;BME280;17581;43.222;27.924;2022-10-16T04:51:50;101457.13;;;11.98;61.76
30875;BME280;17581;43.222;27.924;2022-10-16T04:54:16;101519.50;;;12.41;61.66
30875;BME280;17581;43.222;27.924;2022-10-16T04:56:41;101508.13;;;12.25;61.85
30875;BME280;17581;43.222;27.924;2022-10-16T04:59:15;101448.44;;;12.06;61.78
30875;BME280;17581;43.222;27.924;2022-10-16T05:01:43;101453.88;;;11.93;61.37
30875;BME280;17581;43.222;27.924;2022-10-16T05:04:23;101445.19;;;11.89;61.56
30875;BME280;17581;43.222;27.924;2022-10-16T05:06:49;101443.16;;;11.68;61.73
30875;BME280;17581;43.222;27.924;2022-10-16T05:09:16;101400.81;;;11.57;61.65
30875;BME280;17581;43.222;27.924;2022-10-16T05:11:43;101589.94;;;12.73;61.64
30875;BME280;17581;43.222;27.924;2022-10-16T05:14:08;101500.38;;;12.20;61.07
30875;BME280;17581;43.222;27.924;2022-10-16T05:16:34;101544.13;;;12.60;60.87
30875;BME280;17581;43.222;27.924;2022-10-16T05:18:59;101583.75;;;12.83;60.06
30875;BME280;17581;43.222;27.924;2022-10-16T05:21:25;101593.31;;;12.87;60.52
30875;BME280;17581;43.222;27.924;2022-10-16T05:23:50;101598.47;;;12.90;60.11
30875;BME280;17581;43.222;27.924;2022-10-16T05:26:15;101612.28;;;12.98;59.71
30875;BME280;17581;43.222;27.924;2022-10-16T05:28:41;101565.38;;;12.65;59.79
30875;BME280;17581;43.222;27.924;2022-10-16T05:31:07;101606.47;;;12.92;59.97
30875;BME280;17581;43.222;27.924;2022-10-16T05:33:33;101617.22;;;13.04;60.19
30875;BME280;17581;43.222;27.924;2022-10-16T05:36:07;101467.03;;;12.21;59.99
30875;BME280;17581;43.222;27.924;2022-10-16T05:38:34;101546.13;;;12.69;60.04
30875;BME280;17581;43.222;27.924;2022-10-16T05:40:59;101615.38;;;13.29;59.88
30875;BME280;17581;43.222;27.924;2022-10-16T05:43:27;101517.44;;;12.68;59.66
30875;BME280;17581;43.222;27.924;2022-10-16T05:45:56;101553.13;;;12.95;58.77
30875;BME280;17581;43.222;27.924;2022-10-16T05:48:22;101598.69;;;13.35;58.63
30875;BME280;17581;43.222;27.924;2022-10-16T05:50:48;101576.81;;;13.27;59.10
30875;BME280;17581;43.222;27.924;2022-10-16T05:53:14;101588.38;;;13.40;58.51
30875;BME280;17581;43.222;27.924;2022-10-16T05:55:39;101541.38;;;13.07;58.42
30875;BME280;17581;43.222;27.924;2022-10-16T05:58:05;101554.91;;;13.19;58.37
30875;BME280;17581;43.222;27.924;2022-10-16T06:00:30;101641.53;;;13.63;58.36
30875;BME280;17581;43.222;27.924;2022-10-16T06:02:56;101575.88;;;13.39;58.20
30875;BME280;17581;43.222;27.924;2022-10-16T06:05:21;101605.50;;;13.62;58.09
30875;BME280;17581;43.222;27.924;2022-10-16T06:07:46;101619.66;;;13.66;57.87
30875;BME280;17581;43.222;27.924;2022-10-16T06:10:12;101625.78;;;13.68;58.11
30875;BME280;17581;43.222;27.924;2022-10-16T06:12:37;101613.63;;;13.62;57.75
30875;BME280;17581;43.222;27.924;2022-10-16T06:15:03;101610.28;;;13.70;58.08
30875;BME280;17581;43.222;27.924;2022-10-16T06:17:29;101623.09;;;13.79;57.94
30875;BME280;17581;43.222;27.924;2022-10-16T06:19:54;101620.66;;;13.98;57.35
30875;BME280;17581;43.222;27.924;2022-10-16T06:22:20;101590.91;;;13.87;57.37
30875;BME280;17581;43.222;27.924;2022-10-16T06:24:45;101619.19;;;14.05;57.03
30875;BME280;17581;43.222;27.924;2022-10-16T06:27:11;101567.06;;;13.92;56.95
30875;BME280;17581;43.222;27.924;2022-10-16T06:29:36;101603.06;;;14.26;56.54
30875;BME280;17581;43.222;27.924;2022-10-16T06:32:02;101570.38;;;13.85;57.58
30875;BME280;17581;43.222;27.924;2022-10-16T06:34:27;101600.22;;;14.16;57.33
30875;BME280;17581;43.222;27.924;2022-10-16T06:36:53;101648.69;;;14.53;57.24
30875;BME280;17581;43.222;27.924;2022-10-16T06:39:18;101639.97;;;14.60;56.71
30875;BME280;17581;43.222;27.924;2022-10-16T06:41:44;101661.97;;;14.67;56.76
30875;BME280;17581;43.222;27.924;2022-10-16T06:44:09;101656.69;;;14.77;56.95
30875;BME280;17581;43.222;27.924;2022-10-16T06:46:35;101648.81;;;14.74;56.73
30875;BME280;17581;43.222;27.924;2022-10-16T06:49:00;101634.59;;;14.81;56.25
30875;BME280;17581;43.222;27.924;2022-10-16T06:51:26;101665.47;;;15.01;56.02
30875;BME280;17581;43.222;27.924;2022-10-16T06:53:55;101637.53;;;14.89;56.39
30875;BME280;17581;43.222;27.924;2022-10-16T06:56:25;101676.47;;;15.20;56.38
30875;BME280;17581;43.222;27.924;2022-10-16T06:58:51;101572.28;;;14.60;56.22
30875;BME280;17581;43.222;27.924;2022-10-16T07:01:19;101655.91;;;15.17;55.64
30875;BME280;17581;43.222;27.924;2022-10-16T07:03:45;101674.16;;;15.47;55.74
30875;BME280;17581;43.222;27.924;2022-10-16T07:06:13;101687.84;;;15.46;55.50
30875;BME280;17581;43.222;27.924;2022-10-16T07:08:40;101675.13;;;15.46;55.75
30875;BME280;17581;43.222;27.924;2022-10-16T07:11:10;101689.72;;;15.66;54.92
30875;BME280;17581;43.222;27.924;2022-10-16T07:13:36;101674.13;;;15.58;54.89
30875;BME280;17581;43.222;27.924;2022-10-16T07:16:17;101692.38;;;15.77;54.60
30875;BME280;17581;43.222;27.924;2022-10-16T07:18:43;101653.06;;;15.51;54.48
30875;BME280;17581;43.222;27.924;2022-10-16T07:21:20;101696.28;;;15.84;54.39
30875;BME280;17581;43.222;27.924;2022-10-16T07:23:50;101694.75;;;15.91;54.13
30875;BME280;17581;43.222;27.924;2022-10-16T07:26:16;101703.81;;;16.01;54.00
30875;BME280;17581;43.222;27.924;2022-10-16T07:28:43;101699.13;;;16.03;54.05
30875;BME280;17581;43.222;27.924;2022-10-16T07:31:11;101658.50;;;15.92;53.54
30875;BME280;17581;43.222;27.924;2022-10-16T07:33:38;101674.16;;;16.09;53.21
30875;BME280;17581;43.222;27.924;2022-10-16T07:36:05;101699.22;;;16.22;53.32
30875;BME280;17581;43.222;27.924;2022-10-16T07:38:31;101685.34;;;16.16;52.93
30875;BME280;17581;43.222;27.924;2022-10-16T07:40:58;101682.84;;;16.33;52.58
30875;BME280;17581;43.222;27.924;2022-10-16T07:43:24;101657.06;;;16.18;52.22
30875;BME280;17581;43.222;27.924;2022-10-16T07:45:50;101684.75;;;16.43;52.21
30875;BME280;17581;43.222;27.924;2022-10-16T07:48:17;101703.66;;;16.54;51.53
30875;BME280;17581;43.222;27.924;2022-10-16T07:50:43;101684.75;;;16.43;51.67
30875;BME280;17581;43.222;27.924;2022-10-16T07:53:09;101675.00;;;16.40;51.27
30875;BME280;17581;43.222;27.924;2022-10-16T07:55:35;101678.25;;;16.55;51.46
30875;BME280;17581;43.222;27.924;2022-10-16T07:58:00;101636.13;;;16.40;51.23
30875;BME280;17581;43.222;27.924;2022-10-16T08:00:26;101658.00;;;16.68;51.17
30875;BME280;17581;43.222;27.924;2022-10-16T08:02:51;101666.59;;;16.83;50.87
30875;BME280;17581;43.222;27.924;2022-10-16T08:05:17;101633.38;;;16.70;49.49
30875;BME280;17581;43.222;27.924;2022-10-16T08:07:42;101670.50;;;17.00;49.02
30875;BME280;17581;43.222;27.924;2022-10-16T08:10:18;101669.09;;;17.05;48.92
30875;BME280;17581;43.222;27.924;2022-10-16T08:12:45;101720.50;;;17.27;48.48
30875;BME280;17581;43.222;27.924;2022-10-16T08:15:10;101712.31;;;17.27;48.42
30875;BME280;17581;43.222;27.924;2022-10-16T08:17:37;101637.31;;;16.96;49.00
30875;BME280;17581;43.222;27.924;2022-10-16T08:20:03;101681.56;;;17.36;48.74
30875;BME280;17581;43.222;27.924;2022-10-16T08:22:28;101692.16;;;17.59;48.36
30875;BME280;17581;43.222;27.924;2022-10-16T08:24:54;101677.69;;;17.49;47.67
30875;BME280;17581;43.222;27.924;2022-10-16T08:27:19;101635.03;;;17.39;47.62
30875;BME280;17581;43.222;27.924;2022-10-16T08:29:45;101697.31;;;17.81;46.80
30875;BME280;17581;43.222;27.924;2022-10-16T08:32:11;101666.09;;;17.75;46.74
30875;BME280;17581;43.222;27.924;2022-10-16T08:34:39;101588.94;;;17.28;46.65
30875;BME280;17581;43.222;27.924;2022-10-16T08:37:04;101621.72;;;17.56;46.31
30875;BME280;17581;43.222;27.924;2022-10-16T08:39:30;101613.13;;;17.70;46.36
30875;BME280;17581;43.222;27.924;2022-10-16T08:42:11;101708.91;;;18.39;45.49
30875;BME280;17581;43.222;27.924;2022-10-16T08:48:14;101680.22;;;18.35;44.79
30875;BME280;17581;43.222;27.924;2022-10-16T08:50:43;101637.09;;;18.03;44.75
30875;BME280;17581;43.222;27.924;2022-10-16T08:53:16;101704.59;;;18.56;44.20
30875;BME280;17581;43.222;27.924;2022-10-16T08:55:49;101624.22;;;17.86;44.08
30875;BME280;17581;43.222;27.924;2022-10-16T09:00:50;101719.50;;;18.52;44.49
30875;BME280;17581;43.222;27.924;2022-10-16T09:19:52;101733.34;;;19.22;42.64
30875;BME280;17581;43.222;27.924;2022-10-16T09:22:21;101642.50;;;18.77;42.29
30875;BME280;17581;43.222;27.924;2022-10-16T09:24:50;101687.78;;;19.05;42.46
30875;BME280;17581;43.222;27.924;2022-10-16T09:27:15;101697.91;;;18.95;42.55
30875;BME280;17581;43.222;27.924;2022-10-16T09:29:41;101723.72;;;19.18;42.24
30875;BME280;17581;43.222;27.924;2022-10-16T09:32:12;101642.50;;;18.77;42.43
30875;BME280;17581;43.222;27.924;2022-10-16T09:34:42;101650.06;;;18.83;42.10
30875;BME280;17581;43.222;27.924;2022-10-16T09:37:13;101725.63;;;19.35;42.49
30875;BME280;17581;43.222;27.924;2022-10-16T09:39:49;101728.16;;;19.46;41.97
30875;BME280;17581;43.222;27.924;2022-10-16T09:42:23;101718.88;;;19.57;42.11
30875;BME280;17581;43.222;27.924;2022-10-16T09:44:51;101702.25;;;19.68;42.16
30875;BME280;17581;43.222;27.924;2022-10-16T09:47:21;101676.38;;;19.54;40.98
30875;BME280;17581;43.222;27.924;2022-10-16T09:49:53;101689.78;;;19.66;40.94
30875;BME280;17581;43.222;27.924;2022-10-16T09:52:21;101676.19;;;19.74;40.90
30875;BME280;17581;43.222;27.924;2022-10-16T09:54:57;101705.34;;;19.91;40.62
30875;BME280;17581;43.222;27.924;2022-10-16T09:57:24;101711.19;;;19.96;40.66
30875;BME280;17581;43.222;27.924;2022-10-16T10:02:19;101687.47;;;19.96;39.75
30875;BME280;17581;43.222;27.924;2022-10-16T10:04:50;101670.91;;;19.98;39.75
30875;BME280;17581;43.222;27.924;2022-10-16T10:07:24;101712.16;;;20.30;39.96
30875;BME280;17581;43.222;27.924;2022-10-16T10:09:51;101698.72;;;20.19;39.72
30875;BME280;17581;43.222;27.924;2022-10-16T10:12:25;101700.19;;;20.31;40.11
30875;BME280;17581;43.222;27.924;2022-10-16T10:14:55;101651.19;;;20.12;39.64
30875;BME280;17581;43.222;27.924;2022-10-16T10:17:23;101711.50;;;20.36;38.95
30875;BME280;17581;43.222;27.924;2022-10-16T10:25:18;101685.88;;;20.12;39.57
30875;BME280;17581;43.222;27.924;2022-10-16T10:31:08;101699.41;;;20.47;39.09
30875;BME280;17581;43.222;27.924;2022-10-16T10:34:04;101701.53;;;20.61;38.76
30875;BME280;17581;43.222;27.924;2022-10-16T10:36:38;101685.28;;;20.51;38.53
30875;BME280;17581;43.222;27.924;2022-10-16T10:39:14;101657.56;;;20.46;38.84
30875;BME280;17581;43.222;27.924;2022-10-16T11:00:23;101692.38;;;21.12;37.61
30875;BME280;17581;43.222;27.924;2022-10-16T11:05:44;101685.41;;;21.34;37.21
30875;BME280;17581;43.222;27.924;2022-10-16T11:11:02;101674.59;;;21.24;37.47
30875;BME280;17581;43.222;27.924;2022-10-16T11:16:30;101681.13;;;21.63;37.02
30875;BME280;17581;43.222;27.924;2022-10-16T11:19:16;101681.78;;;21.41;35.84
30875;BME280;17581;43.222;27.924;2022-10-16T11:21:56;101653.72;;;21.15;36.19
30875;BME280;17581;43.222;27.924;2022-10-16T11:24:48;101691.06;;;21.40;36.35
30875;BME280;17581;43.222;27.924;2022-10-16T11:27:20;101690.69;;;21.35;36.82
30875;BME280;17581;43.222;27.924;2022-10-16T11:30:15;101689.34;;;21.31;36.55
30875;BME280;17581;43.222;27.924;2022-10-16T11:33:00;101700.63;;;21.44;35.78
30875;BME280;17581;43.222;27.924;2022-10-16T11:37:57;101691.22;;;21.47;35.57
30875;BME280;17581;43.222;27.924;2022-10-16T11:42:54;101674.28;;;21.51;36.11
30875;BME280;17581;43.222;27.924;2022-10-16T11:51:11;101685.22;;;21.84;35.93
30875;BME280;17581;43.222;27.924;2022-10-16T11:54:15;101691.09;;;21.89;35.82
30875;BME280;17581;43.222;27.924;2022-10-16T11:56:45;101676.00;;;21.85;35.96
30875;BME280;17581;43.222;27.924;2022-10-16T12:02:18;101689.91;;;21.91;34.94
30875;BME280;17581;43.222;27.924;2022-10-16T12:04:53;101690.03;;;21.65;34.65
30875;BME280;17581;43.222;27.924;2022-10-16T12:07:29;101647.84;;;21.02;35.35
30875;BME280;17581;43.222;27.924;2022-10-16T12:09:58;101621.28;;;20.70;36.40
30875;BME280;17581;43.222;27.924;2022-10-16T12:17:50;101682.00;;;20.90;37.51
30875;BME280;17581;43.222;27.924;2022-10-16T12:20:23;101669.38;;;20.97;37.50
30875;BME280;17581;43.222;27.924;2022-10-16T12:23:16;101677.63;;;21.13;36.87
30875;BME280;17581;43.222;27.924;2022-10-16T12:25:54;101695.44;;;21.17;36.85
30875;BME280;17581;43.222;27.924;2022-10-16T12:28:22;101687.66;;;20.96;37.18
30875;BME280;17581;43.222;27.924;2022-10-16T12:30:56;101696.41;;;21.08;37.37
30875;BME280;17581;43.222;27.924;2022-10-16T12:35:54;101713.59;;;21.18;36.41
30875;BME280;17581;43.222;27.924;2022-10-16T12:38:49;101695.75;;;21.06;35.85
30875;BME280;17581;43.222;27.924;2022-10-16T12:41:31;101667.66;;;20.88;35.86
30875;BME280;17581;43.222;27.924;2022-10-16T12:43:57;101705.53;;;21.08;35.66
30875;BME280;17581;43.222;27.924;2022-10-16T12:49:16;101718.00;;;21.11;36.32
30875;BME280;17581;43.222;27.924;2022-10-16T12:51:44;101660.03;;;20.57;36.82
30875;BME280;17581;43.222;27.924;2022-10-16T12:54:20;101595.88;;;20.10;36.93
30875;BME280;17581;43.222;27.924;2022-10-16T12:57:26;101726.75;;;20.81;37.01
30875;BME280;17581;43.222;27.924;2022-10-16T13:05:45;101596.25;;;19.81;36.79
30875;BME280;17581;43.222;27.924;2022-10-16T13:16:15;101726.66;;;20.64;37.25
30875;BME280;17581;43.222;27.924;2022-10-16T13:18:52;101691.00;;;20.40;37.42
30875;BME280;17581;43.222;27.924;2022-10-16T13:24:26;101736.03;;;20.28;37.56
30875;BME280;17581;43.222;27.924;2022-10-16T13:29:37;101677.88;;;19.92;38.06
30875;BME280;17581;43.222;27.924;2022-10-16T13:32:11;101711.13;;;20.14;37.95
30875;BME280;17581;43.222;27.924;2022-10-16T13:34:46;101683.25;;;20.02;38.15
30875;BME280;17581;43.222;27.924;2022-10-16T13:37:18;101708.31;;;20.23;38.21
30875;BME280;17581;43.222;27.924;2022-10-16T13:39:44;101731.09;;;20.32;37.95
30875;BME280;17581;43.222;27.924;2022-10-16T13:42:26;101691.03;;;19.97;37.73
30875;BME280;17581;43.222;27.924;2022-10-16T13:44:54;101739.31;;;20.14;37.72
30875;BME280;17581;43.222;27.924;2022-10-16T13:47:23;101657.91;;;19.48;38.15
30875;BME280;17581;43.222;27.924;2022-10-16T13:50:09;101750.06;;;19.90;38.31
30875;BME280;17581;43.222;27.924;2022-10-16T13:52:36;101749.53;;;19.69;38.43
30875;BME280;17581;43.222;27.924;2022-10-16T13:55:04;101721.88;;;19.36;38.74
30875;BME280;17581;43.222;27.924;2022-10-16T13:57:30;101751.72;;;19.47;38.98
30875;BME280;17581;43.222;27.924;2022-10-16T13:59:55;101713.44;;;19.12;39.18
30875;BME280;17581;43.222;27.924;2022-10-16T14:02:28;101755.22;;;19.30;39.47
30875;BME280;17581;43.222;27.924;2022-10-16T14:04:57;101681.13;;;18.90;39.37
30875;BME280;17581;43.222;27.924;2022-10-16T14:07:28;101668.84;;;18.86;39.47
30875;BME280;17581;43.222;27.924;2022-10-16T14:09:55;101728.31;;;19.18;39.30
30875;BME280;17581;43.222;27.924;2022-10-16T14:12:22;101718.50;;;19.07;39.25
30875;BME280;17581;43.222;27.924;2022-10-16T14:14:50;101750.63;;;19.31;39.27
30875;BME280;17581;43.222;27.924;2022-10-16T14:17:23;101694.47;;;18.93;39.10
30875;BME280;17581;43.222;27.924;2022-10-16T14:19:52;101736.56;;;19.08;39.33
30875;BME280;17581;43.222;27.924;2022-10-16T14:22:35;101748.38;;;19.26;38.99
30875;BME280;17581;43.222;27.924;2022-10-16T14:25:01;101758.88;;;19.21;38.90
30875;BME280;17581;43.222;27.924;2022-10-16T14:27:36;101756.81;;;19.06;39.10
30875;BME280;17581;43.222;27.924;2022-10-16T14:32:56;101732.03;;;18.72;39.33
30875;BME280;17581;43.222;27.924;2022-10-16T14:35:23;101782.75;;;18.92;39.48
30875;BME280;17581;43.222;27.924;2022-10-16T14:37:54;101775.03;;;18.78;39.48
30875;BME280;17581;43.222;27.924;2022-10-16T14:40:23;101733.25;;;18.50;39.77
30875;BME280;17581;43.222;27.924;2022-10-16T14:42:49;101730.25;;;18.43;39.79
30875;BME280;17581;43.222;27.924;2022-10-16T14:45:19;101692.13;;;17.97;39.79
30875;BME280;17581;43.222;27.924;2022-10-16T14:47:51;101741.91;;;18.26;40.25
30875;BME280;17581;43.222;27.924;2022-10-16T14:50:18;101773.72;;;18.35;40.31
30875;BME280;17581;43.222;27.924;2022-10-16T14:52:43;101774.75;;;18.34;40.22
30875;BME280;17581;43.222;27.924;2022-10-16T14:55:09;101778.28;;;18.44;40.60
30875;BME280;17581;43.222;27.924;2022-10-16T14:57:37;101730.50;;;18.13;40.67
30875;BME280;17581;43.222;27.924;2022-10-16T15:00:10;101787.06;;;18.29;40.83
30875;BME280;17581;43.222;27.924;2022-10-16T15:02:38;101779.63;;;18.21;40.60
30875;BME280;17581;43.222;27.924;2022-10-16T15:05:13;101739.16;;;17.70;40.77
30875;BME280;17581;43.222;27.924;2022-10-16T15:07:40;101661.38;;;17.29;40.76
30875;BME280;17581;43.222;27.924;2022-10-16T15:10:05;101773.91;;;17.86;40.70
30875;BME280;17581;43.222;27.924;2022-10-16T15:12:32;101737.25;;;17.52;41.00
30875;BME280;17581;43.222;27.924;2022-10-16T15:14:58;101696.88;;;17.18;41.13